createdAt,value
2018-09-02T00:00:38.512Z,4.93
2018-09-02T00:03:07.562Z,5.03
2018-09-02T00:05:36.551Z,4.90
2018-09-02T00:08:05.499Z,4.90
2018-09-02T00:10:34.800Z,4.43
2018-09-02T00:13:03.818Z,4.87
2018-09-02T00:15:32.911Z,5.23
2018-09-02T00:18:02.390Z,5.30
2018-09-02T00:20:31.768Z,5.10
2018-09-02T00:23:00.983Z,5.27
2018-09-02T00:25:30.399Z,4.93
2018-09-02T00:27:59.652Z,5.00
2018-09-02T00:30:28.928Z,5.20
2018-09-02T00:32:57.926Z,4.77
2018-09-02T00:35:26.839Z,4.73
2018-09-02T00:37:56.106Z,5.23
2018-09-02T00:40:25.554Z,4.90
2018-09-02T00:42:54.824Z,4.80
2018-09-02T00:45:24.016Z,4.53
2018-09-02T00:47:53.091Z,5.20
2018-09-02T00:50:22.343Z,4.50
2018-09-02T00:52:51.411Z,4.37
2018-09-02T00:55:20.419Z,4.80
2018-09-02T00:57:49.326Z,4.87
2018-09-02T01:00:18.534Z,4.80
2018-09-02T01:02:48.008Z,4.47
2018-09-02T01:05:16.960Z,4.40
2018-09-02T01:07:46.050Z,4.77
2018-09-02T01:10:15.862Z,5.10
2018-09-02T01:12:45.339Z,4.83
2018-09-02T01:15:14.477Z,4.63
2018-09-02T01:17:43.547Z,4.30
2018-09-02T01:20:12.814Z,4.83
2018-09-02T01:22:41.712Z,4.77
2018-09-02T01:25:11.154Z,4.60
2018-09-02T01:27:40.340Z,4.57
2018-09-02T01:30:09.412Z,5.10
2018-09-02T01:32:38.664Z,4.33
2018-09-02T01:35:07.767Z,5.10
2018-09-02T01:37:36.924Z,5.10
2018-09-02T01:40:05.994Z,5.10
2018-09-02T01:42:34.903Z,5.17
2018-09-02T01:45:04.256Z,5.70
2018-09-02T01:47:33.408Z,5.93
2018-09-02T01:50:02.498Z,5.73
2018-09-02T01:52:31.828Z,5.00
2018-09-02T01:55:00.843Z,5.30
2018-09-02T01:57:30.205Z,6.40
2018-09-02T01:59:59.290Z,5.07
2018-09-02T02:02:28.804Z,5.27
2018-09-02T02:04:58.026Z,5.43
2018-09-02T02:07:27.022Z,5.73
2018-09-02T02:09:56.395Z,6.37
2018-09-02T02:12:25.591Z,5.90
2018-09-02T02:14:54.684Z,5.70
2018-09-02T02:17:23.793Z,5.73
2018-09-02T02:19:53.091Z,5.40
2018-09-02T02:22:22.178Z,5.30
2018-09-02T02:24:51.284Z,5.47
2018-09-02T02:27:20.276Z,5.40
2018-09-02T02:29:49.461Z,4.93
2018-09-02T02:32:18.934Z,5.93
2018-09-02T02:34:48.066Z,5.83
2018-09-02T02:37:17.063Z,5.77
2018-09-02T02:39:46.159Z,5.47
2018-09-02T02:42:15.967Z,5.03
2018-09-02T02:44:45.082Z,5.20
2018-09-02T02:47:14.412Z,5.57
2018-09-02T02:49:43.740Z,5.77
2018-09-02T02:52:12.862Z,6.30
2018-09-02T02:54:41.924Z,6.00
2018-09-02T02:57:10.991Z,6.00
2018-09-02T02:59:40.274Z,6.03
2018-09-02T03:02:09.536Z,5.90
2018-09-02T03:04:41.220Z,6.30
2018-09-02T03:07:10.934Z,5.80
2018-09-02T03:09:39.996Z,6.20
2018-09-02T03:12:09.916Z,7.03
2018-09-02T03:14:39.055Z,6.33
2018-09-02T03:17:08.408Z,6.00
2018-09-02T03:19:37.319Z,7.33
2018-09-02T03:22:06.840Z,6.33
2018-09-02T03:24:36.056Z,6.63
2018-09-02T03:27:05.314Z,6.53
2018-09-02T03:29:34.646Z,6.50
2018-09-02T03:32:03.798Z,6.73
2018-09-02T03:34:32.820Z,6.30
2018-09-02T03:37:02.007Z,6.97
2018-09-02T03:39:31.371Z,6.87
2018-09-02T03:42:00.728Z,7.47
2018-09-02T03:44:30.195Z,7.47
2018-09-02T03:46:59.319Z,7.50
2018-09-02T03:49:28.643Z,7.67
2018-09-02T03:51:58.092Z,7.23
2018-09-02T03:54:27.275Z,6.90
2018-09-02T03:56:56.333Z,7.07
2018-09-02T03:59:25.464Z,7.50
2018-09-02T04:01:54.512Z,8.33
2018-09-02T04:04:23.641Z,7.80
2018-09-02T04:06:52.895Z,7.30
2018-09-02T04:09:22.194Z,7.13
2018-09-02T04:11:51.226Z,7.90
2018-09-02T04:14:20.327Z,9.00
2018-09-02T04:16:49.447Z,8.30
2018-09-02T04:19:18.707Z,8.00
2018-09-02T04:21:47.835Z,7.60
2018-09-02T04:24:17.148Z,7.87
2018-09-02T04:26:46.596Z,7.43
2018-09-02T04:29:16.064Z,7.33
2018-09-02T04:31:45.540Z,6.70
2018-09-02T04:34:15.780Z,7.27
2018-09-02T04:36:44.917Z,6.80
2018-09-02T04:39:14.243Z,5.83
2018-09-02T04:41:43.421Z,7.07
2018-09-02T04:44:12.487Z,6.63
2018-09-02T04:46:41.747Z,6.03
2018-09-02T04:49:10.652Z,6.47
2018-09-02T04:51:39.712Z,6.30
2018-09-02T04:54:09.336Z,5.40
2018-09-02T04:56:38.551Z,6.17
2018-09-02T04:59:07.690Z,5.80
2018-09-02T05:01:36.804Z,6.53
2018-09-02T05:04:05.942Z,5.40
2018-09-02T05:06:35.254Z,5.50
2018-09-02T05:09:05.396Z,5.20
2018-09-02T05:11:34.443Z,4.90
2018-09-02T05:14:03.734Z,5.27
2018-09-02T05:16:32.634Z,4.87
2018-09-02T05:19:01.679Z,4.53
2018-09-02T05:21:30.695Z,5.00
2018-09-02T05:23:59.934Z,4.50
2018-09-02T05:26:29.018Z,4.33
2018-09-02T05:28:58.339Z,4.00
2018-09-02T05:31:27.294Z,4.47
2018-09-02T05:33:56.564Z,4.90
2018-09-02T05:36:25.597Z,5.10
2018-09-02T05:38:54.814Z,5.13
2018-09-02T05:41:24.090Z,4.97
2018-09-02T05:43:53.563Z,4.40
2018-09-02T05:46:22.815Z,4.70
2018-09-02T05:48:51.714Z,4.27
2018-09-02T05:51:21.166Z,4.60
2018-09-02T05:53:50.301Z,5.07
2018-09-02T05:56:19.400Z,4.77
2018-09-02T05:58:48.471Z,5.20
2018-09-02T06:01:17.987Z,6.10
2018-09-02T06:03:47.388Z,4.47
2018-09-02T06:06:17.016Z,4.47
2018-09-02T06:08:46.273Z,4.33
2018-09-02T06:11:15.235Z,4.93
2018-09-02T06:13:44.323Z,4.27
2018-09-02T06:16:13.586Z,4.30
2018-09-02T06:18:42.846Z,4.40
2018-09-02T06:21:12.365Z,4.53
2018-09-02T06:23:41.731Z,4.80
2018-09-02T06:26:11.254Z,4.30
2018-09-02T06:28:40.263Z,4.30
2018-09-02T06:31:09.191Z,4.83
2018-09-02T06:33:38.485Z,5.03
2018-09-02T06:36:07.559Z,4.80
2018-09-02T06:38:36.833Z,4.83
2018-09-02T06:41:06.332Z,4.43
2018-09-02T06:43:35.660Z,4.60
2018-09-02T06:46:05.277Z,4.57
2018-09-02T06:48:34.418Z,4.63
2018-09-02T06:51:03.663Z,4.37
2018-09-02T06:53:33.397Z,4.77
2018-09-02T06:56:02.921Z,4.27
2018-09-02T06:58:31.955Z,4.17
2018-09-02T07:01:01.291Z,4.20
2018-09-02T07:03:30.567Z,4.07
2018-09-02T07:06:00.348Z,4.30
2018-09-02T07:08:29.434Z,3.70
2018-09-02T07:10:58.608Z,4.40
2018-09-02T07:13:27.852Z,4.30
2018-09-02T07:15:57.030Z,4.30
2018-09-02T07:18:25.923Z,4.00
2018-09-02T07:20:54.961Z,3.80
2018-09-02T07:23:24.247Z,3.90
2018-09-02T07:25:53.343Z,3.77
2018-09-02T07:28:22.390Z,3.93
2018-09-02T07:30:51.584Z,3.90
2018-09-02T07:33:20.689Z,3.67
2018-09-02T07:35:49.950Z,3.37
2018-09-02T07:38:19.047Z,3.83
2018-09-02T07:40:49.151Z,3.90
2018-09-02T07:43:18.246Z,3.43
2018-09-02T07:45:47.734Z,3.77
2018-09-02T07:48:17.234Z,3.30
2018-09-02T07:50:46.718Z,3.37
2018-09-02T07:53:15.880Z,3.43
2018-09-02T07:55:44.835Z,3.50
2018-09-02T07:58:14.315Z,3.47
2018-09-02T08:00:43.550Z,3.60
2018-09-02T08:03:12.584Z,3.53
2018-09-02T08:05:42.040Z,3.47
2018-09-02T08:08:11.327Z,3.60
2018-09-02T08:10:40.444Z,3.57
2018-09-02T08:13:09.419Z,3.43
2018-09-02T08:15:38.719Z,3.27
2018-09-02T08:18:07.766Z,3.10
2018-09-02T08:20:37.007Z,3.10
2018-09-02T08:23:06.323Z,2.83
2018-09-02T08:25:35.343Z,3.00
2018-09-02T08:28:04.323Z,2.73
2018-09-02T08:30:33.343Z,3.13
2018-09-02T08:33:02.537Z,2.70
2018-09-02T08:35:32.019Z,3.03
2018-09-02T08:38:01.765Z,3.27
2018-09-02T08:40:30.903Z,3.03
2018-09-02T08:43:00.047Z,3.23
2018-09-02T08:45:29.101Z,3.47
2018-09-02T08:47:58.424Z,3.30
2018-09-02T08:50:27.771Z,3.23
2018-09-02T08:52:57.315Z,3.07
2018-09-02T08:55:26.701Z,3.23
2018-09-02T08:57:55.961Z,3.00
2018-09-02T09:00:25.063Z,3.53
2018-09-02T09:02:54.607Z,3.90
2018-09-02T09:05:24.099Z,2.93
2018-09-02T09:07:53.481Z,3.53
2018-09-02T09:10:22.406Z,3.97
2018-09-02T09:12:51.735Z,3.53
2018-09-02T09:15:22.202Z,3.47
2018-09-02T09:17:51.486Z,3.70
2018-09-02T09:20:20.697Z,3.87
2018-09-02T09:22:50.091Z,4.40
2018-09-02T09:25:19.143Z,4.85
2018-09-02T09:27:48.267Z,4.08
2018-09-02T09:30:17.424Z,4.70
2018-09-02T09:32:46.556Z,4.80
2018-09-02T09:35:16.013Z,4.97
2018-09-02T09:37:45.056Z,4.90
2018-09-02T09:40:13.995Z,5.03
2018-09-02T09:42:43.102Z,4.75
2018-09-02T09:45:12.374Z,4.67
2018-09-02T09:47:41.272Z,4.42
2018-09-02T09:50:10.316Z,4.92
2018-09-02T09:52:39.358Z,5.10
2018-09-02T09:55:08.556Z,5.10
2018-09-02T09:57:37.778Z,5.05
2018-09-02T10:00:06.934Z,4.87
2018-09-02T10:02:35.804Z,5.03
2018-09-02T10:05:04.935Z,5.80
2018-09-02T10:07:33.949Z,5.47
2018-09-02T10:10:03.239Z,4.97
2018-09-02T10:12:32.767Z,5.47
2018-09-02T10:15:01.866Z,5.72
2018-09-02T10:17:31.019Z,5.45
2018-09-02T10:20:00.164Z,5.40
2018-09-02T10:22:29.873Z,5.90
2018-09-02T10:24:58.918Z,6.20
2018-09-02T10:27:28.190Z,5.50
2018-09-02T10:29:57.224Z,5.90
2018-09-02T10:32:26.593Z,5.40
2018-09-02T10:34:55.662Z,6.30
2018-09-02T10:37:25.191Z,6.30
2018-09-02T10:39:54.468Z,6.15
2018-09-02T10:42:23.674Z,6.17
2018-09-02T10:44:53.068Z,5.35
2018-09-02T10:47:22.085Z,6.12
2018-09-02T10:49:51.220Z,6.22
2018-09-02T10:52:20.662Z,6.28
2018-09-02T10:54:49.726Z,5.80
2018-09-02T10:57:19.019Z,6.15
2018-09-02T10:59:47.949Z,5.70
2018-09-02T11:02:17.047Z,5.90
2018-09-02T11:04:46.272Z,5.95
2018-09-02T11:07:15.524Z,5.80
2018-09-02T11:09:44.775Z,6.12
2018-09-02T11:12:14.014Z,6.08
2018-09-02T11:14:43.242Z,5.83
2018-09-02T11:17:12.523Z,5.80
2018-09-02T11:19:41.884Z,5.30
2018-09-02T11:22:11.705Z,5.55
2018-09-02T11:24:40.662Z,4.47
2018-09-02T11:27:09.952Z,5.80
2018-09-02T11:29:39.023Z,5.65
2018-09-02T11:32:08.066Z,5.60
2018-09-02T11:34:37.451Z,5.75
2018-09-02T11:37:07.021Z,5.87
2018-09-02T11:39:36.439Z,4.45
2018-09-02T11:42:05.562Z,4.85
2018-09-02T11:44:34.691Z,5.55
2018-09-02T11:47:04.678Z,5.10
2018-09-02T11:49:34.381Z,4.22
2018-09-02T11:52:03.893Z,4.12
2018-09-02T11:54:33.147Z,4.40
2018-09-02T11:57:02.383Z,4.12
2018-09-02T11:59:31.455Z,4.30
2018-09-02T12:02:00.446Z,4.37
2018-09-02T12:04:29.623Z,4.05
2018-09-02T12:06:58.831Z,3.72
2018-09-02T12:09:27.765Z,3.42
2018-09-02T12:11:57.756Z,4.00
2018-09-02T12:14:27.055Z,3.98
2018-09-02T12:16:55.930Z,3.50
2018-09-02T12:19:25.035Z,3.67
2018-09-02T12:21:54.150Z,3.70
2018-09-02T12:24:23.255Z,3.53
2018-09-02T12:26:53.317Z,3.67
2018-09-02T12:29:22.634Z,3.50
2018-09-02T12:31:52.151Z,3.40
2018-09-02T12:34:21.110Z,3.30
2018-09-02T12:36:50.343Z,3.67
2018-09-02T12:39:19.386Z,3.40
2018-09-02T12:41:48.603Z,3.50
2018-09-02T12:44:17.703Z,3.43
2018-09-02T12:46:46.636Z,3.30
2018-09-02T12:49:15.773Z,3.43
2018-09-02T12:51:45.245Z,3.37
2018-09-02T12:54:14.728Z,3.20
2018-09-02T12:56:43.929Z,3.53
2018-09-02T12:59:13.305Z,3.60
2018-09-02T13:01:42.428Z,3.27
2018-09-02T13:04:11.544Z,3.00
2018-09-02T13:06:40.810Z,3.80
2018-09-02T13:09:09.810Z,3.00
2018-09-02T13:11:38.908Z,3.30
2018-09-02T13:14:08.147Z,3.37
2018-09-02T13:16:37.432Z,3.70
2018-09-02T13:19:06.463Z,3.40
2018-09-02T13:21:35.512Z,3.77
2018-09-02T13:24:05.034Z,3.70
2018-09-02T13:26:34.277Z,3.47
2018-09-02T13:29:03.576Z,3.27
2018-09-02T13:31:32.744Z,3.80
2018-09-02T13:34:02.293Z,3.60
2018-09-02T13:36:31.540Z,3.63
2018-09-02T13:39:00.428Z,3.43
2018-09-02T13:41:29.693Z,3.50
2018-09-02T13:43:58.808Z,3.70
2018-09-02T13:46:27.779Z,3.77
2018-09-02T13:48:56.899Z,3.43
2018-09-02T13:51:26.194Z,3.20
2018-09-02T13:53:57.379Z,3.63
2018-09-02T13:56:26.923Z,3.43
2018-09-02T13:58:56.317Z,3.80
2018-09-02T14:01:25.371Z,3.57
2018-09-02T14:03:54.423Z,3.57
2018-09-02T14:06:24.380Z,3.73
2018-09-02T14:08:53.252Z,3.40
2018-09-02T14:11:22.704Z,3.50
2018-09-02T14:13:51.899Z,3.60
2018-09-02T14:16:21.615Z,3.47
2018-09-02T14:18:51.262Z,3.90
2018-09-02T14:21:20.431Z,3.57
2018-09-02T14:23:49.726Z,3.50
2018-09-02T14:26:20.491Z,3.67
2018-09-02T14:28:49.729Z,3.63
2018-09-02T14:31:19.996Z,3.63
2018-09-02T14:33:49.467Z,3.57
2018-09-02T14:36:18.989Z,3.60
2018-09-02T14:38:48.027Z,3.93
2018-09-02T14:41:17.173Z,3.77
2018-09-02T14:43:46.641Z,3.43
2018-09-02T14:46:16.132Z,3.97
2018-09-02T14:48:46.637Z,3.87
2018-09-02T14:51:17.376Z,3.90
2018-09-02T14:53:46.747Z,3.90
2018-09-02T14:56:17.400Z,3.63
2018-09-02T14:58:49.121Z,4.00
2018-09-02T15:01:19.123Z,3.70
2018-09-02T15:03:48.201Z,4.00
2018-09-02T15:06:17.504Z,3.93
2018-09-02T15:08:47.011Z,3.73
2018-09-02T15:11:17.275Z,3.97
2018-09-02T15:13:46.550Z,3.77
2018-09-02T15:16:16.373Z,4.03
2018-09-02T15:18:47.642Z,3.87
2018-09-02T15:21:17.732Z,4.30
2018-09-02T15:23:47.947Z,3.97
2018-09-02T15:26:17.126Z,3.70
2018-09-02T15:28:46.997Z,3.83
2018-09-02T15:31:15.905Z,3.50
2018-09-02T15:33:45.244Z,4.10
2018-09-02T15:36:14.776Z,3.70
2018-09-02T15:38:43.796Z,3.40
2018-09-02T15:41:13.094Z,3.60
2018-09-02T15:43:42.882Z,3.70
2018-09-02T15:46:13.995Z,3.77
2018-09-02T15:48:43.091Z,3.53
2018-09-02T15:51:12.240Z,3.33
2018-09-02T15:53:41.153Z,3.90
2018-09-02T15:56:10.171Z,3.50
2018-09-02T15:58:39.207Z,3.70
2018-09-02T16:01:08.160Z,3.70
2018-09-02T16:03:37.213Z,3.77
2018-09-02T16:06:06.579Z,3.53
2018-09-02T16:08:35.968Z,3.17
2018-09-02T16:11:05.271Z,3.47
2018-09-02T16:13:34.391Z,3.80
2018-09-02T16:16:03.475Z,3.90
2018-09-02T16:18:35.128Z,3.73
2018-09-02T16:21:05.072Z,3.53
2018-09-02T16:23:37.073Z,3.90
2018-09-02T16:26:06.991Z,3.77
2018-09-02T16:28:36.150Z,4.13
2018-09-02T16:31:06.254Z,3.63
2018-09-02T16:33:36.210Z,4.03
2018-09-02T16:36:07.938Z,3.37
2018-09-02T16:38:38.455Z,3.63
2018-09-02T16:41:08.043Z,3.47
2018-09-02T16:43:37.359Z,3.70
2018-09-02T16:46:06.716Z,4.07
2018-09-02T16:48:36.240Z,3.83
2018-09-02T16:51:05.901Z,3.80
2018-09-02T16:53:34.915Z,4.77
2018-09-02T16:56:04.500Z,4.10
2018-09-02T16:58:34.324Z,3.83
2018-09-02T17:01:03.672Z,3.47
2018-09-02T17:03:36.569Z,3.80
2018-09-02T17:06:05.801Z,3.63
2018-09-02T17:08:35.192Z,4.10
2018-09-02T17:11:04.271Z,3.67
2018-09-02T17:13:34.420Z,4.30
2018-09-02T17:16:03.456Z,4.00
2018-09-02T17:18:33.920Z,4.37
2018-09-02T17:21:04.048Z,4.00
2018-09-02T17:23:33.379Z,4.10
2018-09-02T17:26:03.174Z,3.63
2018-09-02T17:28:34.201Z,4.23
2018-09-02T17:31:03.298Z,3.93
2018-09-02T17:33:33.435Z,6.17
2018-09-02T17:36:02.611Z,4.40
2018-09-02T17:38:32.377Z,14.23
2018-09-02T17:41:01.520Z,5.23
2018-09-02T17:43:30.768Z,12.10
2018-09-02T17:46:01.361Z,6.83
2018-09-02T17:48:30.620Z,4.77
2018-09-02T17:51:00.099Z,4.17
2018-09-02T17:53:29.790Z,4.27
2018-09-02T17:55:59.329Z,4.60
2018-09-02T17:58:29.677Z,4.40
2018-09-02T18:00:59.788Z,5.27
2018-09-02T18:03:29.312Z,4.17
2018-09-02T18:05:58.395Z,4.23
2018-09-02T18:08:28.040Z,4.20
2018-09-02T18:10:58.797Z,4.40
2018-09-02T18:13:28.146Z,4.27
2018-09-02T18:15:57.323Z,3.93
2018-09-02T18:18:26.429Z,4.20
2018-09-02T18:20:55.490Z,4.20
2018-09-02T18:23:24.956Z,4.13
2018-09-02T18:25:54.177Z,4.77
2018-09-02T18:28:27.322Z,3.97
2018-09-02T18:30:56.318Z,4.20
2018-09-02T18:33:25.471Z,4.53
2018-09-02T18:35:54.996Z,4.77
2018-09-02T18:38:24.316Z,4.93
2018-09-02T18:40:53.599Z,5.00
2018-09-02T18:43:22.625Z,6.17
2018-09-02T18:45:51.947Z,4.40
2018-09-02T18:48:23.281Z,4.30
2018-09-02T18:50:52.840Z,4.30
2018-09-02T18:53:22.126Z,5.77
2018-09-02T18:55:51.539Z,4.43
2018-09-02T18:58:20.576Z,4.83
2018-09-02T19:00:49.788Z,4.50
2018-09-02T19:03:19.113Z,4.30
2018-09-02T19:05:48.547Z,4.63
2018-09-02T19:08:18.143Z,4.13
2018-09-02T19:10:47.598Z,4.57
2018-09-02T19:13:16.785Z,4.73
2018-09-02T19:15:46.511Z,4.63
2018-09-02T19:18:15.842Z,4.30
2018-09-02T19:20:44.959Z,4.57
2018-09-02T19:23:14.051Z,4.70
2018-09-02T19:25:43.101Z,4.47
2018-09-02T19:28:12.493Z,4.13
2018-09-02T19:30:41.651Z,4.17
2018-09-02T19:33:10.780Z,4.10
2018-09-02T19:35:40.103Z,4.40
2018-09-02T19:38:09.413Z,4.50
2018-09-02T19:40:38.929Z,4.10
2018-09-02T19:43:08.339Z,4.10
2018-09-02T19:45:37.617Z,4.23
2018-09-02T19:48:06.792Z,4.00
2018-09-02T19:50:36.208Z,4.10
2018-09-02T19:53:05.509Z,4.17
2018-09-02T19:55:34.660Z,3.90
2018-09-02T19:58:04.565Z,4.67
2018-09-02T20:00:33.723Z,4.73
2018-09-02T20:03:03.061Z,4.37
2018-09-02T20:05:32.380Z,4.93
2018-09-02T20:08:01.607Z,4.70
2018-09-02T20:10:30.842Z,4.40
2018-09-02T20:13:00.283Z,4.40
2018-09-02T20:15:29.643Z,4.53
2018-09-02T20:17:58.876Z,4.30
2018-09-02T20:20:28.077Z,4.27
2018-09-02T20:22:58.172Z,4.40
2018-09-02T20:25:27.279Z,4.03
2018-09-02T20:27:56.614Z,4.40
2018-09-02T20:30:25.919Z,4.10
2018-09-02T20:32:55.140Z,4.07
2018-09-02T20:35:24.164Z,4.57
2018-09-02T20:37:53.684Z,4.57
2018-09-02T20:40:22.904Z,4.60
2018-09-02T20:42:52.420Z,4.40
2018-09-02T20:45:21.453Z,4.33
2018-09-02T20:47:50.644Z,4.57
2018-09-02T20:50:19.807Z,4.43
2018-09-02T20:52:48.899Z,4.30
2018-09-02T20:55:18.000Z,4.67
2018-09-02T20:57:47.392Z,4.53
2018-09-02T21:00:16.842Z,4.77
2018-09-02T21:02:45.901Z,4.40
2018-09-02T21:05:15.451Z,5.03
2018-09-02T21:07:45.152Z,4.93
2018-09-02T21:10:14.691Z,4.23
2018-09-02T21:12:43.723Z,4.57
2018-09-02T21:15:13.678Z,4.53
2018-09-02T21:17:43.004Z,4.47
2018-09-02T21:20:12.277Z,4.30
2018-09-02T21:22:41.532Z,4.80
2018-09-02T21:25:10.923Z,4.50
2018-09-02T21:27:40.218Z,4.57
2018-09-02T21:30:09.515Z,4.40
2018-09-02T21:32:39.030Z,5.03
2018-09-02T21:35:08.223Z,4.67
2018-09-02T21:37:37.354Z,4.83
2018-09-02T21:40:06.351Z,4.87
2018-09-02T21:42:35.773Z,4.93
2018-09-02T21:45:05.291Z,4.67
2018-09-02T21:47:34.858Z,5.00
2018-09-02T21:50:04.555Z,4.53
2018-09-02T21:52:33.883Z,4.50
2018-09-02T21:55:03.052Z,4.33
2018-09-02T21:57:32.398Z,4.53
2018-09-02T22:00:01.956Z,4.80
2018-09-02T22:02:30.969Z,4.83
2018-09-02T22:05:00.487Z,4.80
2018-09-02T22:07:29.808Z,5.07
2018-09-02T22:09:59.401Z,4.70
2018-09-02T22:12:28.710Z,4.60
2018-09-02T22:14:57.795Z,4.47
2018-09-02T22:17:27.083Z,4.80
2018-09-02T22:19:56.358Z,4.47
2018-09-02T22:22:25.430Z,5.03
2018-09-02T22:24:54.602Z,4.87
2018-09-02T22:27:23.687Z,4.67
2018-09-02T22:29:53.008Z,4.10
2018-09-02T22:32:22.197Z,4.70
2018-09-02T22:34:51.326Z,4.57
2018-09-02T22:37:20.571Z,4.70
2018-09-02T22:39:49.770Z,4.47
2018-09-02T22:42:18.927Z,4.60
2018-09-02T22:44:48.049Z,4.87
2018-09-02T22:47:17.167Z,4.47
2018-09-02T22:49:46.266Z,5.30
2018-09-02T22:52:15.348Z,4.90
2018-09-02T22:54:44.674Z,4.63
2018-09-02T22:57:13.716Z,4.90
2018-09-02T22:59:43.338Z,4.50
2018-09-02T23:02:12.384Z,5.43
2018-09-02T23:04:41.702Z,4.73
2018-09-02T23:07:11.241Z,4.93
2018-09-02T23:09:40.276Z,5.47
2018-09-02T23:12:09.477Z,5.10
2018-09-02T23:14:38.596Z,5.17
2018-09-02T23:17:07.789Z,4.80
2018-09-02T23:19:37.404Z,5.50
2018-09-02T23:22:06.742Z,5.23
2018-09-02T23:24:36.000Z,5.40
2018-09-02T23:27:05.308Z,5.00
2018-09-02T23:29:34.604Z,5.30
2018-09-02T23:32:03.600Z,4.70
2018-09-02T23:34:32.699Z,4.70
2018-09-02T23:37:01.948Z,5.40
2018-09-02T23:39:31.151Z,5.13
2018-09-02T23:42:00.182Z,5.13
2018-09-02T23:44:29.235Z,5.43
2018-09-02T23:46:58.127Z,5.10
2018-09-02T23:49:27.602Z,5.23
2018-09-02T23:51:56.967Z,5.47
2018-09-02T23:54:26.119Z,4.80
2018-09-02T23:56:55.066Z,5.37
2018-09-02T23:59:24.367Z,5.20
